Not for real navigation | The accuracy of this data is not assured | See disclaimer for more information
ICAO NAME COUNTRY WIND Kt GUST Kt VIS TEMP/DEW BARO
PATQ 8 0 1200 0/-1 29.97
PATQ 261656Z AUTO 32008KT 0.75SM UP BR OVC003 00/M01 A2997 RMK AO2 SLP154 P0000 T00001006 FZRANO TS
SKUI Quibdo / El Carano Colombia 5 0 1500 26/26 29.83
SKUI 261600Z 13005KT 1500 TSRA BKN003 FEW005CB 26/26 A2983 RMK CB/N AD BLW MNM MET
VEGT Gauhati India 6 0 2000 23/23 29.74
VEGT 261630Z 34006KT 2000 TS FEW010 SCT018 FEW025CB OVC090 23/23 Q1007 NOSIG
WSSS Singapore / Changi Airport Singapore 8 0 2500 25/24 29.91
WSSS 261630Z 27008KT 230V350 2500 +TSRA FEW016CB BKN140 25/24 Q1013 TEMPO TL1655 21015G25KT BECMG FM1645 TL1655 4000 TSRA BECMG FM1705 TL1715 6000 NSW
VOTV Thiruvananthapuram India 3 0 3000 30/26 29.83
VOTV 261600Z 30003KT 3000 TS BR FEW015 FEW025CB BKN080 30/26 Q1010 NOSIG

Show more